Time;durP1;ratioP1;P1;durP2;ratioP2;P2;SDS_P1;SDS_P2;PMS_P1;PMS_P2;Temp;Humidity;BMP_temperature;BMP_pressure;BME280_temperature;BME280_humidity;BME280_pressure;Samples;Min_cycle;Max_cycle;Signal;HPM_P1;HPM_P2
2021/04/18 00:01:43;;;;;;;7.82;3.15;;;6.40;69.60;;;;;;5074946;28;20493;-82
2021/04/18 00:04:09;;;;;;;7.43;3.08;;;6.40;69.50;;;;;;5093426;28;20382;-82
2021/04/18 00:06:35;;;;;;;5.97;3.00;;;6.40;69.20;;;;;;5092505;28;20379;-81
2021/04/18 00:09:01;;;;;;;7.83;2.93;;;6.40;69.20;;;;;;5074544;28;20475;-81
2021/04/18 00:11:27;;;;;;;6.22;3.17;;;6.40;69.30;;;;;;5093066;28;20370;-82
2021/04/18 00:13:52;;;;;;;8.30;3.50;;;6.40;69.60;;;;;;5108353;28;20401;-81
2021/04/18 00:16:18;;;;;;;11.43;3.35;;;6.30;69.80;;;;;;5108753;28;20389;-81
2021/04/18 00:18:44;;;;;;;8.40;3.85;;;6.20;70.20;;;;;;5092114;28;20750;-82
2021/04/18 00:21:09;;;;;;;11.68;3.83;;;6.10;70.60;;;;;;5092691;28;20386;-82
2021/04/18 00:23:35;;;;;;;7.13;3.70;;;6.10;70.40;;;;;;5092479;28;20379;-82
2021/04/18 00:26:01;;;;;;;7.03;3.33;;;5.90;71.10;;;;;;5092851;28;20730;-82
2021/04/18 00:28:26;;;;;;;10.33;4.00;;;5.90;71.00;;;;;;5073587;28;20390;-82
2021/04/18 00:30:52;;;;;;;6.72;3.20;;;6.00;70.90;;;;;;5092680;28;20381;-82
2021/04/18 00:33:18;;;;;;;7.55;2.78;;;6.00;70.50;;;;;;5092247;28;20418;-82
2021/04/18 00:35:44;;;;;;;6.60;3.20;;;5.90;71.00;;;;;;5107383;28;20720;-82
2021/04/18 00:38:10;;;;;;;9.02;3.40;;;5.80;71.90;;;;;;5107510;28;20406;-82
2021/04/18 00:40:38;;;;;;;10.40;3.60;;;5.50;72.50;;;;;;5073766;28;20769;-82
2021/04/18 00:43:04;;;;;;;7.72;3.40;;;5.50;72.60;;;;;;5092781;28;20734;-82
2021/04/18 00:45:31;;;;;;;7.32;3.47;;;5.50;73.20;;;;;;5107688;28;20747;-81
2021/04/18 00:47:57;;;;;;;8.85;3.45;;;5.60;72.80;;;;;;5092060;28;20788;-82
2021/04/18 00:50:35;;;;;;;6.28;3.25;;;5.60;72.30;;;;;;5091955;28;20374;-81
2021/04/18 00:53:06;;;;;;;10.37;3.93;;;5.60;72.70;;;;;;5092266;28;20382;-82
2021/04/18 00:55:33;;;;;;;8.10;3.57;;;5.60;72.20;;;;;;5073434;28;21000;-82
2021/04/18 00:57:59;;;;;;;9.30;3.33;;;5.60;72.10;;;;;;5073413;28;20438;-82
2021/04/18 01:00:26;;;;;;;8.73;3.63;;;5.60;72.30;;;;;;5091445;28;20731;-82
2021/04/18 01:02:51;;;;;;;11.88;3.53;;;5.40;73.00;;;;;;5107099;28;20382;-81
2021/04/18 01:05:18;;;;;;;6.32;2.83;;;5.40;73.00;;;;;;5091958;28;20389;-81
2021/04/18 01:07:43;;;;;;;8.90;3.10;;;5.30;72.90;;;;;;5073400;28;20879;-81
2021/04/18 01:10:12;;;;;;;8.13;3.80;;;5.30;73.20;;;;;;5091791;28;20377;-82
2021/04/18 01:12:38;;;;;;;9.43;3.30;;;5.00;74.50;;;;;;5073344;28;20394;-83
2021/04/18 01:15:05;;;;;;;8.53;3.50;;;5.10;74.30;;;;;;5091843;28;20727;-82
2021/04/18 01:17:30;;;;;;;9.25;3.22;;;5.20;73.70;;;;;;5072863;28;20421;-82
2021/04/18 01:19:56;;;;;;;7.15;3.53;;;5.30;73.40;;;;;;5091754;28;20437;-82
2021/04/18 01:22:22;;;;;;;7.83;3.53;;;5.40;73.10;;;;;;5091109;28;20381;-82
2021/04/18 01:24:47;;;;;;;9.35;3.47;;;5.30;72.90;;;;;;5073194;28;20937;-82
2021/04/18 01:27:15;;;;;;;10.95;3.72;;;5.20;73.90;;;;;;5106460;28;20390;-82
2021/04/18 01:29:41;;;;;;;6.07;3.15;;;5.10;74.50;;;;;;5091698;28;20454;-82
2021/04/18 01:32:07;;;;;;;8.40;3.80;;;5.00;75.10;;;;;;5091136;28;20382;-82
2021/04/18 01:34:33;;;;;;;13.30;4.03;;;5.10;74.50;;;;;;5073100;28;20386;-82
2021/04/18 01:36:59;;;;;;;6.88;3.28;;;5.20;74.20;;;;;;5090772;28;20384;-82
2021/04/18 01:39:25;;;;;;;8.77;4.15;;;5.10;74.90;;;;;;5090753;28;20866;-82
2021/04/18 01:41:50;;;;;;;8.13;3.70;;;5.10;75.20;;;;;;5107145;28;20447;-82
2021/04/18 01:44:16;;;;;;;6.10;3.50;;;5.10;75.10;;;;;;5090870;28;20383;-82
2021/04/18 01:46:45;;;;;;;10.43;3.70;;;5.30;74.20;;;;;;5090671;28;21327;-82
2021/04/18 01:49:10;;;;;;;7.10;3.30;;;5.30;74.70;;;;;;5091134;28;20481;-82
2021/04/18 01:51:36;;;;;;;11.73;3.97;;;5.10;75.50;;;;;;5073201;28;20469;-82
2021/04/18 01:54:03;;;;;;;8.25;3.60;;;5.10;75.70;;;;;;5090724;28;20362;-82
2021/04/18 01:56:29;;;;;;;9.63;3.90;;;5.20;76.10;;;;;;5072473;28;20794;-82
2021/04/18 01:58:55;;;;;;;8.48;3.70;;;5.10;75.90;;;;;;5105969;28;20408;-82
2021/04/18 02:01:21;;;;;;;6.93;3.25;;;5.30;75.40;;;;;;5090706;28;20378;-82
2021/04/18 02:03:46;;;;;;;8.40;3.67;;;5.40;74.80;;;;;;5090858;28;20389;-82
2021/04/18 02:06:12;;;;;;;12.20;4.10;;;5.40;74.60;;;;;;5090670;28;20838;-82
2021/04/18 02:08:38;;;;;;;7.03;3.80;;;5.40;74.90;;;;;;5090330;28;20895;-82
2021/04/18 02:11:03;;;;;;;7.00;4.10;;;5.50;74.80;;;;;;5090196;28;20381;-82
2021/04/18 02:13:31;;;;;;;9.07;3.50;;;5.40;75.50;;;;;;5090780;28;20867;-82
2021/04/18 02:15:57;;;;;;;9.20;3.85;;;5.50;74.70;;;;;;5090408;28;20435;-82
2021/04/18 02:18:23;;;;;;;11.18;4.70;;;5.50;75.40;;;;;;5090036;28;20917;-82
2021/04/18 02:20:49;;;;;;;9.43;3.60;;;5.60;74.60;;;;;;5072337;28;20417;-82
2021/04/18 02:23:14;;;;;;;11.15;3.65;;;5.60;74.90;;;;;;5090592;28;20390;-82
2021/04/18 02:25:40;;;;;;;7.70;4.00;;;5.60;74.90;;;;;;5089999;28;20378;-82
2021/04/18 02:28:06;;;;;;;6.18;3.42;;;5.50;75.50;;;;;;5090026;28;21036;-82
2021/04/18 02:30:32;;;;;;;5.97;3.53;;;5.50;75.50;;;;;;5105781;28;20382;-82
2021/04/18 02:32:57;;;;;;;9.75;4.07;;;5.60;74.90;;;;;;5090333;28;20451;-82
2021/04/18 02:35:24;;;;;;;11.57;4.28;;;5.60;75.40;;;;;;5072303;28;20898;-82
2021/04/18 02:37:49;;;;;;;11.50;4.10;;;5.40;77.00;;;;;;5089894;28;20382;-82
2021/04/18 02:40:15;;;;;;;9.70;3.83;;;5.40;76.70;;;;;;5089027;28;20426;-82
2021/04/18 02:42:41;;;;;;;9.52;3.85;;;5.50;76.10;;;;;;5090002;28;20964;-82
2021/04/18 02:45:09;;;;;;;12.10;4.03;;;5.50;75.70;;;;;;5090533;28;20417;-82
2021/04/18 02:47:36;;;;;;;13.52;4.20;;;5.40;76.40;;;;;;5089458;28;20447;-82
2021/04/18 02:50:06;;;;;;;12.88;4.53;;;5.50;76.10;;;;;;5090433;28;20382;-82
2021/04/18 02:52:32;;;;;;;6.78;3.75;;;5.50;75.60;;;;;;5071635;28;20474;-82
2021/04/18 02:54:57;;;;;;;7.07;3.90;;;5.50;76.40;;;;;;5072242;28;20397;-82
2021/04/18 02:57:23;;;;;;;9.32;3.63;;;5.50;76.60;;;;;;5071422;28;20743;-82
2021/04/18 02:59:49;;;;;;;7.75;3.95;;;5.50;75.70;;;;;;5093045;28;20441;-82
2021/04/18 03:02:14;;;;;;;8.73;3.90;;;5.60;76.10;;;;;;5094496;28;20439;-82
2021/04/18 03:04:40;;;;;;;11.97;4.40;;;5.60;76.10;;;;;;5076199;28;20809;-82
2021/04/18 03:07:05;;;;;;;9.48;4.43;;;5.50;76.50;;;;;;5093938;28;20712;-82
2021/04/18 03:09:31;;;;;;;12.05;4.72;;;5.50;77.90;;;;;;5094213;28;20378;-82
2021/04/18 03:11:56;;;;;;;11.30;4.28;;;5.40;77.70;;;;;;5094432;28;20386;-82
2021/04/18 03:14:22;;;;;;;12.60;4.67;;;5.60;76.90;;;;;;5094376;28;20382;-82
2021/04/18 03:16:47;;;;;;;9.77;4.37;;;5.70;76.40;;;;;;5094432;28;20796;-82
2021/04/18 03:19:13;;;;;;;9.73;4.80;;;5.70;76.60;;;;;;5093630;28;20406;-82
2021/04/18 03:21:39;;;;;;;9.27;4.60;;;5.60;76.70;;;;;;5094381;28;20382;-82
2021/04/18 03:24:48;;;;;;;8.95;4.65;;;5.50;77.50;;;;;;5093830;28;20402;-82
2021/04/18 03:27:13;;;;;;;12.45;5.60;;;5.60;77.40;;;;;;5074126;28;20451;-82
2021/04/18 03:29:39;;;;;;;10.15;4.68;;;5.50;77.60;;;;;;5093476;28;20382;-82
2021/04/18 03:32:05;;;;;;;10.77;4.90;;;5.50;77.40;;;;;;5093608;28;20394;-82
2021/04/18 03:34:30;;;;;;;12.07;4.53;;;5.70;76.50;;;;;;5093630;28;20378;-82
2021/04/18 03:36:57;;;;;;;10.18;4.80;;;5.50;78.90;;;;;;5093127;28;20378;-82
2021/04/18 03:39:23;;;;;;;11.75;4.82;;;5.50;77.80;;;;;;5108769;28;20402;-82
2021/04/18 03:41:48;;;;;;;8.37;4.43;;;5.70;76.90;;;;;;5093596;28;20481;-82
2021/04/18 03:44:14;;;;;;;11.03;4.90;;;5.70;76.40;;;;;;5108903;28;20854;-82
2021/04/18 03:46:39;;;;;;;8.33;4.57;;;5.60;77.60;;;;;;5108808;28;20507;-82
2021/04/18 03:49:05;;;;;;;9.73;4.57;;;5.60;77.40;;;;;;5075174;28;20390;-83
2021/04/18 03:51:31;;;;;;;15.57;5.25;;;5.70;76.80;;;;;;5108980;28;20420;-82
2021/04/18 03:53:57;;;;;;;10.03;4.93;;;5.70;77.00;;;;;;5108842;28;20424;-82
2021/04/18 03:56:22;;;;;;;12.37;4.73;;;5.80;76.50;;;;;;5093044;28;20401;-81
2021/04/18 03:58:48;;;;;;;8.40;4.50;;;5.70;77.00;;;;;;5108351;28;20398;-82
2021/04/18 04:01:13;;;;;;;9.80;4.57;;;5.80;77.10;;;;;;5092920;28;20392;-81
2021/04/18 04:03:39;;;;;;;10.37;4.73;;;5.60;77.20;;;;;;5108314;28;20386;-82
2021/04/18 04:06:05;;;;;;;10.98;4.78;;;5.60;77.30;;;;;;5108555;28;20722;-80
2021/04/18 04:08:34;;;;;;;9.07;4.60;;;5.50;77.80;;;;;;5092737;28;20474;-82
2021/04/18 04:10:59;;;;;;;10.03;5.37;;;5.60;77.10;;;;;;5091304;28;20381;-82
2021/04/18 04:13:25;;;;;;;10.60;4.60;;;5.70;76.50;;;;;;5108703;28;20469;-82
2021/04/18 04:15:51;;;;;;;11.57;4.80;;;5.70;76.40;;;;;;5074344;28;20398;-81
2021/04/18 04:18:16;;;;;;;8.80;4.17;;;5.70;76.40;;;;;;5074289;28;20402;-81
2021/04/18 04:20:42;;;;;;;12.67;5.47;;;5.70;76.40;;;;;;5092471;28;20379;-81
2021/04/18 04:23:07;;;;;;;16.33;5.73;;;5.60;78.30;;;;;;5106931;28;20397;-81
2021/04/18 04:25:33;;;;;;;11.77;4.60;;;5.50;78.70;;;;;;5092174;28;20378;-81
2021/04/18 04:27:59;;;;;;;14.07;5.50;;;5.70;77.00;;;;;;5092172;28;20473;-81
2021/04/18 04:30:26;;;;;;;12.30;5.43;;;5.60;77.10;;;;;;5092575;28;20943;-81
2021/04/18 04:32:51;;;;;;;11.15;5.38;;;5.60;77.60;;;;;;5108206;28;20394;-81
2021/04/18 04:35:18;;;;;;;9.73;4.90;;;5.60;78.00;;;;;;5092469;28;20378;-81
2021/04/18 04:37:43;;;;;;;16.60;4.50;;;5.60;77.90;;;;;;5091678;28;20435;-80
2021/04/18 04:40:09;;;;;;;12.20;4.90;;;5.70;76.90;;;;;;5092654;28;20404;-81
2021/04/18 04:42:35;;;;;;;16.43;5.50;;;5.60;77.60;;;;;;5092104;28;20382;-81
2021/04/18 04:45:00;;;;;;;9.17;4.50;;;5.70;76.90;;;;;;5092536;28;20403;-82
2021/04/18 04:47:26;;;;;;;11.43;4.90;;;5.70;76.40;;;;;;5073482;28;20729;-81
2021/04/18 04:49:52;;;;;;;11.10;5.23;;;5.80;75.90;;;;;;5091879;28;20386;-81
2021/04/18 04:52:17;;;;;;;10.02;5.38;;;5.80;75.90;;;;;;5073907;28;20382;-81
2021/04/18 04:54:43;;;;;;;17.23;6.20;;;5.70;76.90;;;;;;5091965;28;20386;-81
2021/04/18 04:57:09;;;;;;;15.93;6.07;;;5.70;77.00;;;;;;5092436;28;20394;-81
2021/04/18 04:59:34;;;;;;;14.18;5.32;;;5.70;77.00;;;;;;5073704;28;20784;-81
2021/04/18 05:02:00;;;;;;;13.00;5.40;;;5.80;76.70;;;;;;5091820;28;20475;-81
2021/04/18 05:04:25;;;;;;;12.73;5.40;;;5.80;76.90;;;;;;5091998;28;20435;-82
2021/04/18 05:06:52;;;;;;;9.85;5.20;;;5.80;76.40;;;;;;5107156;28;20431;-81
2021/04/18 05:09:17;;;;;;;13.07;6.17;;;5.80;77.00;;;;;;5091504;28;20447;-81
2021/04/18 05:11:43;;;;;;;11.57;6.30;;;5.70;77.40;;;;;;5107162;28;20404;-81
2021/04/18 05:14:08;;;;;;;17.80;6.10;;;5.80;76.90;;;;;;5107443;28;20435;-81
2021/04/18 05:16:34;;;;;;;13.47;6.07;;;5.80;77.20;;;;;;5091460;28;20407;-80
2021/04/18 05:19:00;;;;;;;14.63;6.63;;;5.80;76.90;;;;;;5107104;28;20919;-81
2021/04/18 05:21:25;;;;;;;15.38;6.28;;;5.80;77.10;;;;;;5106860;28;20944;-81
2021/04/18 05:23:52;;;;;;;17.05;6.80;;;5.80;77.20;;;;;;5073290;28;20382;-81
2021/04/18 05:26:17;;;;;;;13.68;6.38;;;5.90;76.90;;;;;;5091596;28;20464;-81
2021/04/18 05:28:43;;;;;;;12.55;6.60;;;6.00;76.70;;;;;;5090782;28;20481;-81
2021/04/18 05:31:09;;;;;;;15.82;6.30;;;6.00;77.00;;;;;;5086727;28;20378;-80
2021/04/18 05:33:34;;;;;;;15.90;6.93;;;5.90;76.60;;;;;;5090790;28;20373;-80
2021/04/18 05:36:00;;;;;;;14.23;7.77;;;6.00;77.20;;;;;;5084375;28;20421;-81
2021/04/18 05:38:26;;;;;;;16.48;8.45;;;6.10;76.30;;;;;;5089572;28;20727;-81
2021/04/18 05:40:52;;;;;;;19.80;8.57;;;6.10;76.20;;;;;;5089517;28;20397;-81
2021/04/18 05:43:17;;;;;;;19.33;8.43;;;6.10;76.20;;;;;;5089686;28;20436;-81
2021/04/18 05:45:43;;;;;;;20.35;9.43;;;6.00;76.80;;;;;;5091065;28;20481;-81
2021/04/18 05:48:10;;;;;;;18.27;7.95;;;6.00;75.80;;;;;;5089147;28;20397;-81
2021/04/18 05:50:36;;;;;;;20.65;9.73;;;6.00;76.30;;;;;;5091317;28;20447;-81
2021/04/18 05:53:01;;;;;;;24.57;8.97;;;6.10;77.10;;;;;;5090598;28;20777;-81
2021/04/18 05:55:27;;;;;;;18.67;8.43;;;6.30;75.70;;;;;;5090529;28;20481;-81
2021/04/18 05:57:53;;;;;;;19.07;8.40;;;6.30;74.60;;;;;;5090394;28;20431;-81
2021/04/18 06:00:19;;;;;;;17.07;8.30;;;6.30;74.70;;;;;;5089259;28;20402;-81
2021/04/18 06:02:47;;;;;;;19.70;8.93;;;6.30;74.90;;;;;;5088513;28;22672;-81
2021/04/18 06:05:13;;;;;;;19.42;8.38;;;6.30;75.50;;;;;;5090444;28;20385;-81
2021/04/18 06:07:38;;;;;;;15.25;7.47;;;6.20;75.60;;;;;;5088595;28;20859;-81
2021/04/18 06:10:05;;;;;;;19.57;7.63;;;6.40;75.50;;;;;;5089198;28;20489;-81
2021/04/18 06:12:31;;;;;;;21.40;7.57;;;6.50;74.60;;;;;;5090793;28;20410;-81
2021/04/18 06:14:56;;;;;;;18.67;7.87;;;6.60;74.50;;;;;;5089178;28;20506;-81
2021/04/18 06:17:22;;;;;;;23.57;7.60;;;6.60;74.90;;;;;;5090208;28;20394;-82
2021/04/18 06:19:47;;;;;;;14.77;7.37;;;6.60;74.60;;;;;;5089057;28;20744;-82
2021/04/18 06:22:13;;;;;;;11.00;6.30;;;6.40;74.30;;;;;;5089017;28;20386;-81
2021/04/18 06:24:38;;;;;;;17.75;8.13;;;6.40;74.70;;;;;;5090439;28;20377;-81
2021/04/18 06:27:04;;;;;;;14.30;7.50;;;6.50;76.00;;;;;;5089816;28;20406;-81
2021/04/18 06:29:30;;;;;;;12.57;6.73;;;6.60;74.70;;;;;;5090736;28;20394;-78
2021/04/18 06:34:36;;;;;;;17.65;6.90;;;6.50;74.90;;;;;;5225631;23;20477;-80
2021/04/18 06:37:02;;;;;;;15.97;7.57;;;6.50;75.10;;;;;;4989777;28;20398;-77
2021/04/18 06:39:28;;;;;;;18.00;7.53;;;6.60;75.20;;;;;;4973903;28;20414;-79
2021/04/18 06:41:56;;;;;;;18.83;8.10;;;6.60;75.60;;;;;;4972963;28;20393;-74
2021/04/18 06:44:22;;;;;;;16.30;6.60;;;6.70;75.30;;;;;;4972015;28;20750;-75
2021/04/18 06:46:49;;;;;;;14.88;6.45;;;6.70;75.20;;;;;;4972061;28;20477;-73
2021/04/18 06:49:15;;;;;;;17.55;7.80;;;6.70;74.20;;;;;;4972179;28;20394;-77
2021/04/18 06:51:40;;;;;;;15.70;6.90;;;6.80;74.70;;;;;;4989595;28;20843;-76
2021/04/18 06:54:07;;;;;;;15.80;6.80;;;6.90;74.20;;;;;;4987038;28;20394;-76
2021/04/18 06:56:33;;;;;;;16.15;6.68;;;7.10;73.70;;;;;;4969941;28;20740;-76
2021/04/18 06:59:00;;;;;;;12.98;6.95;;;7.00;74.50;;;;;;4969672;28;20426;-77
2021/04/18 07:01:25;;;;;;;14.00;7.28;;;7.30;73.90;;;;;;4986707;28;20444;-75
2021/04/18 07:04:17;;;;;;;14.80;7.38;;;7.10;74.60;;;;;;4988057;28;20461;-75
2021/04/18 07:06:49;;;;;;;17.92;7.35;;;7.10;73.80;;;;;;4987669;28;20402;-76
2021/04/18 07:09:15;;;;;;;17.98;7.60;;;7.20;73.70;;;;;;4988052;28;20395;-76
2021/04/18 07:11:45;;;;;;;20.25;8.32;;;7.20;73.40;;;;;;4970597;28;20394;-75
2021/04/18 07:14:26;;;;;;;16.35;7.65;;;7.30;74.30;;;;;;4988223;28;20488;-76
2021/04/18 07:16:53;;;;;;;19.63;7.88;;;7.30;74.00;;;;;;4987896;28;20394;-76
2021/04/18 07:19:24;;;;;;;17.38;7.85;;;7.10;73.80;;;;;;4986612;28;20450;-77
2021/04/18 07:21:55;;;;;;;18.27;8.53;;;7.30;73.50;;;;;;4989057;28;20386;-76
2021/04/18 07:24:22;;;;;;;15.43;7.07;;;7.10;74.10;;;;;;4988840;28;20743;-77
2021/04/18 07:27:00;;;;;;;15.00;7.77;;;7.10;74.30;;;;;;4971288;28;20391;-74
2021/04/18 07:29:27;;;;;;;14.27;7.50;;;7.10;74.60;;;;;;4988871;28;20788;-74
2021/04/18 07:31:53;;;;;;;15.57;7.97;;;7.30;74.00;;;;;;4989065;28;20432;-74
2021/04/18 07:34:21;;;;;;;20.17;8.38;;;7.40;74.10;;;;;;4971340;28;20970;-75
2021/04/18 07:37:05;;;;;;;17.57;7.47;;;7.50;73.80;;;;;;4988937;28;20391;-74
2021/04/18 07:39:56;;;;;;;17.75;7.20;;;7.50;73.00;;;;;;4971678;28;20430;-74
2021/04/18 07:42:34;;;;;;;16.95;7.45;;;7.70;73.30;;;;;;4988837;28;20391;-75
2021/04/18 07:45:07;;;;;;;16.98;8.02;;;7.60;72.70;;;;;;4990336;28;20811;-75
2021/04/18 07:47:37;;;;;;;17.67;7.38;;;7.80;72.40;;;;;;4992279;28;20379;-74
2021/04/18 07:50:06;;;;;;;19.42;7.40;;;7.80;72.30;;;;;;4973490;28;20465;-74
2021/04/18 07:52:34;;;;;;;16.42;7.65;;;7.80;72.90;;;;;;4991497;28;20866;-74
2021/04/18 07:55:00;;;;;;;18.73;8.30;;;7.80;73.80;;;;;;4991770;28;20970;-74
2021/04/18 07:57:26;;;;;;;19.45;7.68;;;7.80;72.90;;;;;;4990005;28;20758;-75
2021/04/18 07:59:53;;;;;;;19.20;8.02;;;8.00;72.80;;;;;;4973782;28;20449;-74
2021/04/18 08:02:20;;;;;;;17.95;8.13;;;8.10;72.60;;;;;;4991340;28;20390;-75
2021/04/18 08:04:50;;;;;;;19.75;8.15;;;8.10;72.50;;;;;;4990901;28;20383;-75
2021/04/18 08:07:16;;;;;;;17.00;8.05;;;8.00;71.90;;;;;;4990913;28;20391;-75
2021/04/18 08:09:42;;;;;;;15.50;7.90;;;8.20;72.80;;;;;;4994104;28;20401;-80
2021/04/18 08:12:18;;;;;;;19.98;8.63;;;8.20;71.80;;;;;;4993741;28;20387;-78
2021/04/18 08:14:47;;;;;;;19.58;8.10;;;8.10;71.80;;;;;;4992340;28;20918;-76
2021/04/18 08:17:17;;;;;;;15.02;7.97;;;8.20;71.80;;;;;;4991898;28;20387;-83
2021/04/18 08:20:00;;;;;;;19.23;7.78;;;8.20;72.70;;;;;;4975699;28;20429;-82
2021/04/18 08:22:46;;;;;;;16.17;8.20;;;8.40;71.80;;;;;;4993040;28;20387;-78
2021/04/18 08:25:12;;;;;;;18.98;8.57;;;8.40;71.90;;;;;;4992366;28;20403;-80
2021/04/18 08:28:00;;;;;;;19.60;9.00;;;8.60;70.90;;;;;;4974197;28;21111;-79
2021/04/18 08:30:26;;;;;;;17.77;7.97;;;8.80;71.10;;;;;;4992475;28;20930;-79
2021/04/18 08:32:52;;;;;;;19.83;8.68;;;8.60;70.30;;;;;;4991899;28;20397;-78
2021/04/18 08:35:20;;;;;;;16.35;8.75;;;8.90;71.40;;;;;;4992135;28;20391;-74
2021/04/18 08:38:12;;;;;;;15.25;8.20;;;8.80;69.90;;;;;;4989738;28;20429;-80
2021/04/18 08:40:38;;;;;;;26.15;9.10;;;9.00;69.90;;;;;;4991835;28;20406;-76
2021/04/18 08:43:20;;;;;;;20.50;9.02;;;9.10;69.10;;;;;;4991872;28;20437;-78
2021/04/18 08:45:49;;;;;;;17.75;9.50;;;8.80;69.60;;;;;;4991849;28;20422;-79
2021/04/18 08:48:15;;;;;;;18.13;8.43;;;8.90;69.70;;;;;;4991101;28;20392;-79
2021/04/18 08:50:58;;;;;;;18.65;8.48;;;8.90;69.10;;;;;;4991822;28;20403;-78
2021/04/18 08:53:25;;;;;;;18.90;8.57;;;8.70;69.80;;;;;;4992276;28;20791;-84
2021/04/18 08:56:11;;;;;;;17.33;8.60;;;8.50;70.40;;;;;;4992567;28;20416;-80
2021/04/18 08:58:38;;;;;;;17.13;8.73;;;8.90;69.70;;;;;;4975249;28;20496;-79
2021/04/18 09:01:08;;;;;;;25.63;9.45;;;9.10;70.10;;;;;;4991432;28;20383;-79
2021/04/18 09:03:35;;;;;;;18.33;9.48;;;9.20;68.20;;;;;;4990124;28;20402;-80
2021/04/18 09:06:03;;;;;;;16.65;8.52;;;9.20;69.40;;;;;;4991687;28;20390;-78
2021/04/18 09:08:28;;;;;;;17.73;8.75;;;9.60;67.00;;;;;;4971814;28;20415;-80
2021/04/18 09:11:05;;;;;;;17.17;8.90;;;10.00;66.90;;;;;;4973902;28;20449;-81
2021/04/18 09:13:31;;;;;;;17.80;9.43;;;9.90;65.50;;;;;;4973703;28;20502;-80
2021/04/18 09:15:57;;;;;;;16.02;9.18;;;9.90;67.70;;;;;;4991362;28;20386;-76
2021/04/18 09:18:26;;;;;;;22.40;9.77;;;9.90;65.80;;;;;;4990645;28;20394;-78
2021/04/18 09:21:14;;;;;;;18.58;8.82;;;10.00;67.30;;;;;;4992096;28;20386;-78
2021/04/18 09:24:00;;;;;;;17.38;8.90;;;9.90;65.60;;;;;;4974940;28;20394;-74
2021/04/18 09:26:26;;;;;;;15.07;8.65;;;9.90;66.00;;;;;;4991747;28;20469;-75
2021/04/18 09:29:08;;;;;;;23.20;8.77;;;9.60;66.20;;;;;;4991700;28;20397;-73
2021/04/18 09:31:34;;;;;;;19.50;8.05;;;9.90;66.80;;;;;;4992528;28;20386;-79
2021/04/18 09:34:05;;;;;;;20.90;8.67;;;9.60;67.30;;;;;;4975008;28;20417;-81
2021/04/18 09:36:31;;;;;;;16.57;8.73;;;9.60;66.50;;;;;;4990719;28;20401;-77
2021/04/18 09:39:00;;;;;;;18.73;8.57;;;9.50;66.10;;;;;;4990195;28;20418;-82
2021/04/18 09:41:26;;;;;;;23.75;9.30;;;9.70;66.20;;;;;;4990708;28;20481;-80
2021/04/18 09:43:59;;;;;;;18.63;8.90;;;10.00;66.50;;;;;;4990329;28;20390;-75
2021/04/18 09:46:25;;;;;;;19.98;8.80;;;10.90;64.50;;;;;;4991230;28;20387;-75
2021/04/18 09:49:00;;;;;;;17.52;8.63;;;11.10;63.00;;;;;;4972381;28;20394;-75
2021/04/18 09:51:26;;;;;;;14.35;8.90;;;10.90;62.80;;;;;;4992016;28;20413;-76
2021/04/18 09:54:03;;;;;;;20.03;8.53;;;10.60;62.30;;;;;;4990573;28;20386;-77
2021/04/18 09:56:28;;;;;;;19.98;8.60;;;10.90;63.60;;;;;;4989998;28;20402;-80
2021/04/18 09:58:54;;;;;;;21.80;8.80;;;10.90;61.90;;;;;;4972539;28;20414;-77
2021/04/18 10:01:33;;;;;;;21.97;9.03;;;10.50;63.50;;;;;;4988694;28;21092;-76
2021/04/18 10:03:58;;;;;;;16.25;9.35;;;10.80;63.80;;;;;;4990276;28;20390;-76
2021/04/18 10:06:24;;;;;;;19.73;9.17;;;11.00;63.70;;;;;;4988346;28;20750;-76
2021/04/18 10:08:53;;;;;;;17.43;8.33;;;11.30;63.10;;;;;;4972542;28;20758;-75
2021/04/18 10:11:20;;;;;;;18.80;9.52;;;11.30;61.60;;;;;;4972158;28;20410;-75
2021/04/18 10:13:59;;;;;;;16.85;8.85;;;11.20;61.50;;;;;;4972919;28;20394;-75
2021/04/18 10:16:40;;;;;;;22.45;8.98;;;11.40;63.10;;;;;;4972309;28;20803;-75
2021/04/18 10:19:17;;;;;;;20.00;8.70;;;11.60;61.50;;;;;;4972730;28;20418;-78
2021/04/18 10:21:45;;;;;;;22.00;8.73;;;11.00;62.00;;;;;;4989829;28;20877;-74
2021/04/18 10:24:34;;;;;;;18.17;9.07;;;10.80;63.70;;;;;;4989588;28;20489;-74
2021/04/18 10:27:02;;;;;;;17.75;8.23;;;11.10;62.50;;;;;;4990489;28;20902;-71
2021/04/18 10:29:29;;;;;;;14.48;7.97;;;11.10;61.60;;;;;;4990736;28;20382;-73
2021/04/18 10:31:54;;;;;;;17.20;7.95;;;11.40;62.20;;;;;;4973176;28;20397;-72
2021/04/18 10:34:20;;;;;;;15.32;8.57;;;11.80;62.20;;;;;;4989919;28;20882;-72
2021/04/18 10:36:46;;;;;;;17.93;8.47;;;11.50;61.50;;;;;;4990595;28;20885;-71
2021/04/18 10:39:14;;;;;;;16.67;9.37;;;11.40;62.00;;;;;;4972108;28;20429;-74
2021/04/18 10:41:41;;;;;;;23.00;9.67;;;11.40;62.20;;;;;;4990046;28;20538;-76
2021/04/18 10:44:06;;;;;;;17.70;8.95;;;11.40;62.70;;;;;;4989571;28;20386;-74
2021/04/18 10:46:32;;;;;;;21.43;9.27;;;11.30;62.60;;;;;;4971955;28;20386;-75
2021/04/18 10:48:57;;;;;;;19.33;9.02;;;11.60;61.80;;;;;;4992214;28;20417;-70
2021/04/18 10:51:23;;;;;;;37.60;9.07;;;12.10;60.60;;;;;;5008598;28;20826;-75
2021/04/18 10:53:48;;;;;;;19.17;9.23;;;12.50;61.40;;;;;;4981989;28;20391;-74
2021/04/18 10:56:14;;;;;;;20.42;9.57;;;12.90;58.30;;;;;;5005620;28;20402;-74
2021/04/18 10:58:39;;;;;;;21.23;10.25;;;12.80;58.40;;;;;;5000908;28;20421;-75
2021/04/18 15:30:48;;;;;;;24.48;7.72;;;15.10;52.50;;;;;;5066638;28;20364;-74
2021/04/18 15:33:16;;;;;;;12.48;7.82;;;15.10;53.50;;;;;;5065692;28;20396;-78
2021/04/18 15:35:41;;;;;;;17.92;7.75;;;15.50;52.80;;;;;;5066687;28;20710;-77
2021/04/18 15:38:07;;;;;;;15.27;8.15;;;15.50;51.70;;;;;;5066669;28;20429;-82
2021/04/18 15:40:34;;;;;;;22.45;8.23;;;15.40;51.70;;;;;;5068057;28;20396;-79
2021/04/18 15:43:00;;;;;;;15.32;8.52;;;15.00;53.30;;;;;;5067030;28;20423;-77
2021/04/18 15:45:25;;;;;;;13.00;7.70;;;15.10;53.30;;;;;;5066232;28;20408;-77
2021/04/18 15:47:52;;;;;;;25.77;14.35;;;14.90;52.40;;;;;;5065293;28;20381;-78
2021/04/18 15:50:18;;;;;;;34.20;17.40;;;14.80;52.80;;;;;;5067416;28;20448;-77
2021/04/18 15:52:44;;;;;;;18.88;10.25;;;14.70;53.80;;;;;;5067848;28;20378;-78
2021/04/18 15:55:10;;;;;;;29.07;14.23;;;15.00;53.10;;;;;;5068460;28;20389;-76
2021/04/18 15:57:35;;;;;;;18.50;9.75;;;15.20;53.50;;;;;;5066109;28;20801;-78
2021/04/18 16:00:08;;;;;;;14.60;7.70;;;15.10;50.70;;;;;;5068092;28;20444;-77
2021/04/18 16:02:33;;;;;;;18.00;7.30;;;14.90;51.40;;;;;;5068333;28;20394;-82
2021/04/18 16:04:59;;;;;;;20.77;10.03;;;14.90;51.70;;;;;;5067185;28;20396;-82
2021/04/18 16:07:26;;;;;;;15.13;8.87;;;15.10;53.00;;;;;;5066439;28;20389;-82
2021/04/18 16:09:51;;;;;;;17.73;8.65;;;15.30;52.60;;;;;;5066137;28;20512;-82
2021/04/18 16:12:17;;;;;;;17.57;9.03;;;15.20;51.80;;;;;;5067374;28;20464;-81
2021/04/18 16:14:43;;;;;;;15.87;7.90;;;15.20;52.00;;;;;;5068108;28;20808;-82
2021/04/18 16:17:10;;;;;;;15.82;7.78;;;14.80;51.80;;;;;;5066087;28;20388;-81
2021/04/18 16:19:36;;;;;;;15.23;8.90;;;15.00;51.90;;;;;;5067510;28;20389;-83
2021/04/18 16:22:02;;;;;;;15.07;8.60;;;14.80;53.60;;;;;;5066139;28;20389;-82
2021/04/18 16:24:27;;;;;;;11.47;7.63;;;15.10;54.60;;;;;;5065970;28;20393;-81
2021/04/18 16:26:53;;;;;;;15.73;7.77;;;14.90;51.70;;;;;;5065583;28;20412;-81
2021/04/18 16:29:19;;;;;;;38.00;17.83;;;14.70;52.50;;;;;;5075685;28;20426;-82
2021/04/18 16:31:45;;;;;;;12.90;7.68;;;14.60;51.90;;;;;;5070022;28;20484;-82
2021/04/18 16:34:12;;;;;;;17.00;10.43;;;14.90;51.70;;;;;;5087784;28;20415;-82
2021/04/18 16:36:37;;;;;;;11.30;7.60;;;14.90;52.90;;;;;;5069759;28;20472;-82
2021/04/18 16:39:03;;;;;;;18.33;9.52;;;14.80;52.50;;;;;;5087508;28;20411;-82
2021/04/18 16:41:29;;;;;;;12.53;8.23;;;14.80;51.60;;;;;;5060165;28;20388;-82
2021/04/18 16:43:54;;;;;;;17.40;9.83;;;14.70;53.40;;;;;;5054924;28;20415;-83
2021/04/18 16:46:20;;;;;;;17.13;9.13;;;14.80;54.00;;;;;;5073204;28;20462;-82
2021/04/18 16:48:46;;;;;;;17.85;7.50;;;14.90;53.20;;;;;;5072220;28;20910;-81
2021/04/18 16:51:12;;;;;;;14.85;7.65;;;14.70;53.20;;;;;;5054879;28;20445;-82
2021/04/18 16:53:39;;;;;;;14.88;7.93;;;14.70;52.60;;;;;;5071648;28;20385;-82
2021/04/18 16:56:05;;;;;;;14.70;7.05;;;14.70;52.30;;;;;;5071216;28;20406;-83
2021/04/18 16:58:31;;;;;;;12.35;7.20;;;14.70;51.70;;;;;;5053476;28;20390;-81
2021/04/18 17:00:57;;;;;;;16.17;6.80;;;14.60;52.50;;;;;;5053713;28;20380;-81
2021/04/18 17:03:22;;;;;;;15.00;7.10;;;14.60;52.30;;;;;;5053257;28;20403;-82
2021/04/18 17:05:48;;;;;;;15.10;7.57;;;14.70;52.40;;;;;;5071814;28;20413;-81
2021/04/18 17:08:15;;;;;;;9.95;7.03;;;14.60;53.20;;;;;;5052754;28;20392;-84
2021/04/18 17:10:40;;;;;;;10.00;6.30;;;14.60;52.70;;;;;;5052887;28;20411;-84
2021/04/18 17:13:07;;;;;;;11.87;7.43;;;14.60;53.20;;;;;;5053547;28;20398;-83
2021/04/18 17:15:34;;;;;;;23.27;9.70;;;14.60;52.20;;;;;;5053112;28;20739;-81
2021/04/18 17:17:59;;;;;;;17.20;7.55;;;14.40;53.00;;;;;;5070917;28;20391;-82
2021/04/18 17:20:25;;;;;;;15.35;7.38;;;14.40;53.60;;;;;;5053247;28;20393;-82